Time;durP1;ratioP1;P1;durP2;ratioP2;P2;SDS_P1;SDS_P2;PMS_P1;PMS_P2;Temp;Humidity;BMP_temperature;BMP_pressure;BME280_temperature;BME280_humidity;BME280_pressure;Samples;Min_cycle;Max_cycle;Signal;HPM_P1;HPM_P2
2022/11/30 00:01:23;;;;;;;2.40;2.20;;;;;;;6.13;68.42;99870.31;4319109;33;34616;-76
2022/11/30 00:03:53;;;;;;;0.85;0.85;;;;;;;5.83;68.85;99863.78;4316897;33;34534;-76
2022/11/30 00:06:22;;;;;;;0.90;0.88;;;;;;;6.22;67.09;99860.12;4319387;33;34030;-77
2022/11/30 00:08:56;;;;;;;3.12;1.50;;;;;;;6.33;67.29;99860.28;4306050;33;35109;-76
2022/11/30 00:11:27;;;;;;;1.08;1.08;;;;;;;6.05;68.01;99861.56;4305908;33;34477;-72
2022/11/30 00:13:55;;;;;;;2.65;2.45;;;;;;;6.25;67.79;99861.91;4317950;33;34557;-76
2022/11/30 00:16:23;;;;;;;1.40;1.20;;;;;;;5.92;68.81;99860.47;4319247;33;33994;-77
2022/11/30 00:18:52;;;;;;;2.50;1.67;;;;;;;6.32;68.29;99865.41;4318978;33;35004;-76
2022/11/30 00:21:20;;;;;;;4.95;1.92;;;;;;;6.26;67.86;99861.03;4319036;33;34515;-76
2022/11/30 00:23:48;;;;;;;1.35;1.30;;;;;;;6.14;68.49;99861.75;4318952;33;34721;-75
2022/11/30 00:26:18;;;;;;;2.42;1.80;;;;;;;5.88;68.35;99863.87;4318897;33;33737;-72
2022/11/30 00:28:46;;;;;;;1.42;1.33;;;;;;;6.23;66.96;99859.28;4318779;33;35004;-76
2022/11/30 00:31:15;;;;;;;1.05;1.02;;;;;;;6.00;67.85;99860.62;4318809;33;34671;-77
2022/11/30 00:33:44;;;;;;;2.90;2.70;;;;;;;5.87;67.86;99855.22;4305827;33;33760;-77
2022/11/30 00:36:13;;;;;;;2.72;2.17;;;;;;;6.19;66.73;99860.06;4317707;33;34769;-77
2022/11/30 00:38:42;;;;;;;1.17;1.15;;;;;;;6.21;66.88;99863.56;4317612;33;35214;-76
2022/11/30 00:41:11;;;;;;;2.62;2.40;;;;;;;6.05;66.71;99856.41;4317592;33;34623;-75
2022/11/30 00:43:39;;;;;;;1.20;1.10;;;;;;;6.45;65.40;99859.59;4318638;33;33813;-76
2022/11/30 00:46:10;;;;;;;0.70;0.70;;;;;;;6.60;64.86;99867.56;4318583;33;33868;-72
2022/11/30 00:48:39;;;;;;;2.70;2.05;;;;;;;6.08;65.45;99878.00;4318726;33;35042;-76
2022/11/30 00:51:09;;;;;;;1.25;1.25;;;;;;;6.06;66.51;99863.31;4318577;33;35287;-72
2022/11/30 00:53:38;;;;;;;1.40;0.90;;;;;;;6.14;66.49;99866.91;4305509;33;33470;-71
2022/11/30 00:56:07;;;;;;;0.70;0.70;;;;;;;6.72;64.09;99866.00;4318479;33;33973;-77
2022/11/30 00:58:35;;;;;;;0.90;0.90;;;;;;;6.74;63.63;99869.47;4305447;33;35113;-77
2022/11/30 01:01:04;;;;;;;1.23;1.17;;;;;;;6.53;63.79;99873.50;4318459;33;35209;-77
2022/11/30 01:03:33;;;;;;;1.10;1.10;;;;;;;6.71;63.92;99875.47;4317260;33;32162;-77
2022/11/30 01:06:05;;;;;;;1.05;1.00;;;;;;;6.62;63.68;99877.94;4317213;33;33901;-76
2022/11/30 01:08:34;;;;;;;1.10;0.80;;;;;;;6.93;62.17;99879.22;4318378;33;34983;-76
2022/11/30 01:11:11;;;;;;;1.92;1.80;;;;;;;6.71;62.98;99879.78;4305212;33;34561;-77
2022/11/30 01:13:40;;;;;;;1.77;1.67;;;;;;;6.59;63.05;99878.75;4316983;33;33589;-76
2022/11/30 01:16:11;;;;;;;1.33;1.23;;;;;;;6.88;61.56;99877.41;4318212;33;34792;-76
2022/11/30 01:18:40;;;;;;;3.75;2.50;;;;;;;6.80;62.58;99877.31;4319007;33;35779;-76
2022/11/30 01:21:12;;;;;;;0.75;0.75;;;;;;;6.82;62.43;99878.22;4319005;33;33600;-76
2022/11/30 01:23:40;;;;;;;0.88;0.88;;;;;;;6.71;62.50;99870.31;4307220;33;33558;-77
2022/11/30 01:26:09;;;;;;;1.95;1.85;;;;;;;6.31;64.32;99867.16;4320005;33;34052;-72
2022/11/30 01:28:39;;;;;;;1.27;1.17;;;;;;;6.61;62.97;99868.44;4319327;33;35981;-77
2022/11/30 01:31:09;;;;;;;0.90;0.90;;;;;;;6.47;63.41;99869.97;4307321;33;35355;-73
2022/11/30 01:33:38;;;;;;;0.88;0.88;;;;;;;6.17;64.10;99864.34;4319021;33;33518;-73
2022/11/30 01:36:11;;;;;;;3.20;2.25;;;;;;;6.51;62.51;99858.81;4307005;33;34043;-78
2022/11/30 01:38:41;;;;;;;0.70;0.70;;;;;;;6.39;63.37;99859.53;4318968;33;35029;-77
2022/11/30 01:41:11;;;;;;;1.55;1.45;;;;;;;6.43;62.96;99856.97;4307005;33;35117;-71
2022/11/30 01:43:43;;;;;;;0.98;0.80;;;;;;;6.45;62.43;99852.69;4307106;33;32926;-76
2022/11/30 01:46:26;;;;;;;1.37;1.27;;;;;;;6.67;61.34;99862.47;4318896;33;34029;-77
2022/11/30 01:49:04;;;;;;;0.98;0.95;;;;;;;6.61;61.56;99848.59;4306732;33;35361;-77
2022/11/30 01:51:51;;;;;;;1.00;1.00;;;;;;;6.51;61.06;99857.09;4320106;33;34543;-77
2022/11/30 01:54:23;;;;;;;0.88;0.88;;;;;;;6.57;60.65;99853.72;4306948;33;32368;-76
2022/11/30 01:57:03;;;;;;;2.05;1.95;;;;;;;6.56;60.70;99860.59;4320140;33;33860;-77
2022/11/30 01:59:31;;;;;;;1.15;1.05;;;;;;;6.80;60.59;99854.03;4319034;33;35936;-77
2022/11/30 02:01:59;;;;;;;1.40;1.30;;;;;;;6.68;60.33;99856.47;4306648;33;33764;-77
2022/11/30 02:04:30;;;;;;;0.73;0.73;;;;;;;6.67;59.49;99852.12;4319874;33;33689;-71
2022/11/30 02:06:59;;;;;;;1.23;1.20;;;;;;;6.47;60.58;99855.31;4306858;33;33209;-71
2022/11/30 02:09:28;;;;;;;0.52;0.52;;;;;;;6.81;59.54;99855.75;4306863;33;35056;-78
2022/11/30 02:11:56;;;;;;;1.15;1.08;;;;;;;6.62;59.69;99850.34;4319628;33;35157;-71
2022/11/30 02:14:38;;;;;;;0.68;0.68;;;;;;;6.44;59.98;99850.06;4318845;33;34558;-77
2022/11/30 02:17:20;;;;;;;0.77;0.70;;;;;;;6.72;59.53;99850.47;4318003;33;33883;-71
2022/11/30 02:19:58;;;;;;;0.50;0.50;;;;;;;6.61;59.90;99858.94;4300442;33;35146;-72
2022/11/30 02:22:53;;;;;;;2.47;2.37;;;;;;;6.61;59.04;99861.53;4320042;33;34633;-77
2022/11/30 02:25:36;;;;;;;2.55;1.37;;;;;;;6.59;59.39;99850.31;4306689;33;34313;-77
2022/11/30 02:28:26;;;;;;;1.20;1.10;;;;;;;6.75;58.76;99848.78;4319053;33;34348;-77
2022/11/30 02:30:57;;;;;;;0.52;0.52;;;;;;;6.84;58.24;99845.44;4306398;33;35996;-77
2022/11/30 02:33:28;;;;;;;3.60;3.30;;;;;;;6.69;58.69;99843.53;4306749;33;34539;-76
2022/11/30 02:35:57;;;;;;;0.60;0.60;;;;;;;6.67;58.62;99840.06;4306777;33;33701;-73
2022/11/30 02:38:26;;;;;;;1.42;1.33;;;;;;;6.45;59.32;99838.91;4306518;33;34988;-76
2022/11/30 02:40:54;;;;;;;2.37;1.58;;;;;;;6.75;57.37;99840.16;4306496;33;35131;-77
2022/11/30 02:43:25;;;;;;;1.12;1.10;;;;;;;6.79;57.89;99837.62;4319469;33;34679;-76
2022/11/30 02:45:56;;;;;;;1.37;1.27;;;;;;;6.80;58.04;99843.69;4306740;33;34633;-77
2022/11/30 02:48:43;;;;;;;0.95;0.88;;;;;;;6.87;57.17;99842.91;4316981;33;34655;-75
2022/11/30 02:51:16;;;;;;;0.70;0.70;;;;;;;6.86;56.90;99845.47;4294678;33;34427;-75
2022/11/30 02:53:45;;;;;;;1.35;1.33;;;;;;;7.19;56.65;99837.22;4306462;33;35331;-76
2022/11/30 02:56:13;;;;;;;1.65;1.27;;;;;;;6.79;57.42;99836.75;4306588;33;34552;-76
2022/11/30 02:58:41;;;;;;;3.65;2.40;;;;;;;6.91;57.22;99844.66;4318406;33;33981;-76
2022/11/30 03:01:12;;;;;;;1.10;1.10;;;;;;;6.99;57.42;99842.19;4306799;33;35197;-75
2022/11/30 03:03:40;;;;;;;1.05;1.05;;;;;;;7.00;57.01;99838.72;4306190;33;33877;-76
2022/11/30 03:06:08;;;;;;;1.33;1.10;;;;;;;6.87;56.73;99845.50;4319543;33;34571;-75
2022/11/30 03:08:36;;;;;;;0.60;0.60;;;;;;;7.02;57.03;99835.31;4319544;33;34768;-76
2022/11/30 03:11:05;;;;;;;2.05;1.87;;;;;;;6.60;57.24;99835.63;4319499;33;35087;-76
2022/11/30 03:13:33;;;;;;;1.62;1.52;;;;;;;6.91;56.52;99836.03;4319403;33;34420;-76
2022/11/30 03:16:09;;;;;;;0.77;0.77;;;;;;;7.08;56.23;99834.53;4306387;33;33729;-76
2022/11/30 03:18:38;;;;;;;0.70;0.70;;;;;;;6.82;57.09;99837.66;4306670;33;34713;-76
2022/11/30 03:21:07;;;;;;;0.65;0.65;;;;;;;7.09;56.23;99835.38;4319454;33;34920;-76
2022/11/30 03:23:36;;;;;;;0.75;0.75;;;;;;;7.02;55.76;99843.09;4319395;33;35167;-76
2022/11/30 03:26:05;;;;;;;1.75;1.65;;;;;;;7.02;55.74;99848.28;4306281;33;33724;-76
2022/11/30 03:28:34;;;;;;;0.65;0.65;;;;;;;6.95;56.62;99848.16;4294454;33;33913;-76
2022/11/30 03:31:03;;;;;;;0.80;0.77;;;;;;;7.33;55.84;99846.00;4319402;33;35173;-75
2022/11/30 03:33:31;;;;;;;0.90;0.90;;;;;;;6.98;56.16;99854.25;4319268;33;34607;-76
2022/11/30 03:36:01;;;;;;;0.52;0.52;;;;;;;6.59;57.40;99855.47;4319355;33;33718;-71
2022/11/30 03:38:29;;;;;;;1.17;1.17;;;;;;;6.95;56.56;99849.06;4319207;33;33796;-72
2022/11/30 03:41:06;;;;;;;0.80;0.80;;;;;;;6.95;57.03;99849.06;4318461;33;35977;-71
2022/11/30 03:43:34;;;;;;;0.82;0.82;;;;;;;6.69;56.93;99846.13;4309195;33;35346;-76
2022/11/30 03:46:03;;;;;;;0.60;0.60;;;;;;;6.89;56.92;99848.97;4304671;33;33531;-76
2022/11/30 03:48:31;;;;;;;2.08;1.98;;;;;;;7.20;56.54;99844.16;4308413;33;32779;-76
2022/11/30 03:50:59;;;;;;;0.95;0.95;;;;;;;6.86;57.53;99854.09;4297795;33;35172;-71
2022/11/30 03:53:27;;;;;;;1.27;1.20;;;;;;;7.23;56.25;99851.94;4304611;33;35231;-77
2022/11/30 03:55:58;;;;;;;1.02;1.02;;;;;;;6.71;57.02;99846.16;4304773;33;33511;-76
2022/11/30 03:58:26;;;;;;;0.40;0.40;;;;;;;7.12;56.55;99844.06;4291635;33;33164;-75
2022/11/30 04:00:59;;;;;;;0.85;0.85;;;;;;;6.63;58.35;99846.91;4304705;33;34939;-76
2022/11/30 04:03:28;;;;;;;0.85;0.85;;;;;;;7.03;56.79;99854.31;4313479;33;34472;-76
2022/11/30 04:05:56;;;;;;;0.90;0.90;;;;;;;7.05;57.26;99846.56;4306005;33;33523;-72
2022/11/30 04:08:25;;;;;;;1.10;1.10;;;;;;;6.86;57.57;99846.31;4318147;33;34088;-76
2022/11/30 04:10:55;;;;;;;1.80;1.70;;;;;;;6.91;58.01;99844.66;4319194;33;35920;-76
2022/11/30 04:13:24;;;;;;;0.85;0.85;;;;;;;7.20;56.87;99844.16;4305748;33;34361;-76
2022/11/30 04:15:52;;;;;;;2.35;2.17;;;;;;;7.10;57.57;99845.75;4319032;33;34497;-76
2022/11/30 04:18:22;;;;;;;1.12;1.02;;;;;;;7.05;57.29;99843.97;4317903;33;33769;-71
2022/11/30 04:20:55;;;;;;;0.50;0.50;;;;;;;7.06;56.64;99835.34;4318891;33;35145;-76
2022/11/30 04:23:24;;;;;;;1.20;1.00;;;;;;;7.16;56.90;99853.59;4305967;33;35258;-76
2022/11/30 04:25:52;;;;;;;0.60;0.60;;;;;;;7.29;55.99;99848.53;4318774;33;33641;-76
2022/11/30 04:28:20;;;;;;;0.85;0.85;;;;;;;7.23;55.68;99844.16;4319005;33;33890;-71
2022/11/30 04:30:49;;;;;;;0.60;0.60;;;;;;;7.00;55.73;99851.69;4318905;33;34921;-74
2022/11/30 04:33:17;;;;;;;2.15;1.05;;;;;;;7.09;55.75;99845.75;4318846;33;34512;-77
2022/11/30 04:35:47;;;;;;;0.70;0.70;;;;;;;7.05;56.16;99843.97;4318865;33;33677;-76
2022/11/30 04:38:16;;;;;;;2.35;1.87;;;;;;;7.11;55.65;99849.22;4317604;33;33803;-74
2022/11/30 04:40:44;;;;;;;0.50;0.50;;;;;;;7.15;55.31;99853.59;4319099;33;35861;-77
2022/11/30 04:43:12;;;;;;;2.28;2.03;;;;;;;6.91;55.94;99849.84;4317528;33;32859;-75
2022/11/30 04:45:43;;;;;;;1.60;1.50;;;;;;;7.06;56.42;99850.88;4317575;33;33657;-75
2022/11/30 04:48:11;;;;;;;1.00;1.00;;;;;;;6.97;55.85;99851.63;4305588;33;34737;-75
2022/11/30 04:50:39;;;;;;;8.40;3.55;;;;;;;7.20;54.82;99859.69;4319181;33;35877;-76
2022/11/30 04:53:08;;;;;;;1.20;1.20;;;;;;;7.16;55.80;99852.72;4319297;33;35109;-76
2022/11/30 04:55:37;;;;;;;3.20;1.50;;;;;;;7.00;56.49;99849.09;4314095;33;33639;-76
2022/11/30 04:58:05;;;;;;;0.57;0.57;;;;;;;7.09;56.38;99850.91;4304723;33;33793;-76
2022/11/30 05:00:34;;;;;;;0.65;0.65;;;;;;;7.64;54.38;99848.91;4304592;33;35744;-75
2022/11/30 05:03:02;;;;;;;0.75;0.70;;;;;;;6.90;55.77;99850.72;4304735;33;34647;-76
2022/11/30 05:05:30;;;;;;;1.08;1.08;;;;;;;7.15;56.01;99853.59;4297628;33;269595;-76
2022/11/30 05:07:59;;;;;;;0.50;0.50;;;;;;;7.26;55.63;99853.72;4305704;33;33889;-76
2022/11/30 05:10:28;;;;;;;0.73;0.73;;;;;;;7.16;55.72;99852.72;4305625;33;35043;-77
2022/11/30 05:12:57;;;;;;;3.70;2.37;;;;;;;7.19;55.26;99852.75;4304288;33;35186;-72
2022/11/30 05:15:25;;;;;;;0.62;0.62;;;;;;;7.00;54.99;99862.91;4305811;33;33713;-76
2022/11/30 05:17:57;;;;;;;3.28;2.10;;;;;;;7.16;55.11;99855.31;4305715;33;33868;-72
2022/11/30 05:20:27;;;;;;;0.75;0.75;;;;;;;7.25;55.22;99858.00;4309053;33;35121;-76
2022/11/30 05:22:56;;;;;;;1.33;1.25;;;;;;;7.21;55.47;99861.41;4320127;33;34468;-76
2022/11/30 05:25:24;;;;;;;0.80;0.80;;;;;;;7.20;54.19;99857.97;4307214;33;34437;-75
2022/11/30 05:27:52;;;;;;;0.45;0.45;;;;;;;7.25;53.57;99859.72;4320307;33;34046;-75
2022/11/30 05:30:20;;;;;;;2.33;2.15;;;;;;;7.33;52.99;99850.34;4320139;33;35128;-72
2022/11/30 05:32:48;;;;;;;1.00;1.00;;;;;;;7.17;53.42;99859.66;4320151;33;34509;-76
2022/11/30 05:35:16;;;;;;;0.60;0.60;;;;;;;6.92;54.78;99859.38;4320160;33;33437;-76
2022/11/30 05:37:44;;;;;;;0.40;0.40;;;;;;;6.94;53.73;99864.56;4319339;33;33914;-74
2022/11/30 05:40:12;;;;;;;1.77;1.67;;;;;;;7.19;53.41;99869.16;4313442;33;35083;-74
2022/11/30 05:42:41;;;;;;;2.10;1.95;;;;;;;7.22;54.23;99861.44;4305565;33;35118;-74
2022/11/30 05:45:09;;;;;;;1.52;1.42;;;;;;;7.02;53.36;99861.22;4305968;33;33627;-72
2022/11/30 05:47:37;;;;;;;0.50;0.50;;;;;;;7.26;53.74;99862.34;4313433;33;32903;-76
2022/11/30 05:50:06;;;;;;;0.50;0.50;;;;;;;7.20;53.80;99862.28;4319980;33;35088;-75
2022/11/30 05:52:34;;;;;;;1.08;1.08;;;;;;;7.42;52.60;99860.78;4320007;33;34512;-76
2022/11/30 05:55:02;;;;;;;0.60;0.60;;;;;;;7.40;53.24;99863.34;4319967;33;34554;-72
2022/11/30 05:57:35;;;;;;;1.05;1.05;;;;;;;7.27;53.03;99861.50;4319975;33;34695;-71
2022/11/30 06:00:05;;;;;;;0.80;0.80;;;;;;;6.96;54.45;99871.47;4319983;33;35193;-76
2022/11/30 06:02:38;;;;;;;0.40;0.40;;;;;;;7.31;54.38;99867.59;4318017;33;35279;-77
2022/11/30 06:05:07;;;;;;;0.50;0.50;;;;;;;7.21;53.61;99866.59;4319987;33;33822;-76
2022/11/30 06:07:35;;;;;;;1.05;1.02;;;;;;;7.14;54.44;99873.41;4319823;33;33825;-77
2022/11/30 06:10:04;;;;;;;0.85;0.85;;;;;;;7.03;56.14;99877.63;4316027;33;35210;-77
2022/11/30 06:12:32;;;;;;;0.50;0.50;;;;;;;7.13;53.88;99878.56;4319543;33;34525;-71
2022/11/30 06:15:00;;;;;;;2.35;2.15;;;;;;;6.92;55.74;99880.06;4319881;33;33516;-77
2022/11/30 06:17:28;;;;;;;0.68;0.68;;;;;;;7.01;54.70;99881.91;4319876;33;33914;-77
2022/11/30 06:19:56;;;;;;;2.03;1.85;;;;;;;6.79;54.50;99883.34;4319726;33;35855;-72
2022/11/30 06:22:24;;;;;;;0.50;0.50;;;;;;;7.06;54.31;99887.13;4319809;33;34673;-77
2022/11/30 06:24:52;;;;;;;0.60;0.60;;;;;;;7.32;53.17;99885.69;4319818;33;33829;-76
2022/11/30 06:27:20;;;;;;;2.40;1.55;;;;;;;7.24;53.34;99891.69;4318495;33;34759;-73
2022/11/30 06:29:48;;;;;;;0.80;0.80;;;;;;;7.23;53.98;99895.97;4304538;33;34898;-76
2022/11/30 06:32:17;;;;;;;2.60;2.40;;;;;;;7.11;53.93;99888.94;4318637;33;34373;-77
2022/11/30 06:34:45;;;;;;;0.73;0.73;;;;;;;7.07;53.65;99889.75;4319934;33;33815;-77
2022/11/30 06:37:13;;;;;;;1.05;1.02;;;;;;;7.02;53.77;99897.47;4319698;33;34739;-77
2022/11/30 06:39:41;;;;;;;1.08;1.08;;;;;;;7.35;53.70;99900.44;4319616;33;34998;-77
2022/11/30 06:42:30;;;;;;;11.75;3.35;;;;;;;7.38;52.95;99901.34;4318804;33;34363;-77
2022/11/30 06:44:59;;;;;;;1.75;1.65;;;;;;;7.33;53.70;99903.00;4306663;33;33586;-77
2022/11/30 06:47:27;;;;;;;1.98;1.87;;;;;;;7.02;54.21;99906.94;4319591;33;33938;-77
2022/11/30 06:49:55;;;;;;;1.15;1.00;;;;;;;7.22;53.66;99902.03;4319676;33;35888;-76
2022/11/30 06:52:23;;;;;;;0.40;0.40;;;;;;;7.15;53.83;99901.06;4306179;33;34599;-76
2022/11/30 06:54:51;;;;;;;1.70;1.60;;;;;;;7.41;53.12;99905.66;4306595;33;33742;-72
2022/11/30 06:57:20;;;;;;;0.40;0.40;;;;;;;6.88;53.71;99898.97;4318462;33;34788;-77
2022/11/30 06:59:48;;;;;;;0.60;0.60;;;;;;;7.05;53.39;99903.53;4319524;33;35039;-77
2022/11/30 07:02:16;;;;;;;0.50;0.50;;;;;;;6.94;54.15;99904.25;4319527;33;35169;-77
2022/11/30 07:04:45;;;;;;;0.52;0.52;;;;;;;7.19;53.54;99904.56;4319586;33;34570;-77
2022/11/30 07:07:14;;;;;;;0.70;0.70;;;;;;;6.99;54.54;99902.59;4306526;33;33858;-78
2022/11/30 07:09:42;;;;;;;1.10;1.10;;;;;;;7.36;53.32;99900.44;4306357;33;34995;-71
2022/11/30 07:12:11;;;;;;;1.23;1.08;;;;;;;6.99;55.02;99897.41;4319384;33;34475;-74
2022/11/30 07:14:39;;;;;;;0.57;0.57;;;;;;;6.84;54.03;99897.22;4306035;33;33765;-77
2022/11/30 07:17:07;;;;;;;2.35;1.85;;;;;;;7.05;53.87;99904.38;4319346;33;33898;-74
2022/11/30 07:19:35;;;;;;;0.50;0.50;;;;;;;6.81;55.81;99894.56;4316205;33;35170;-78
2022/11/30 07:22:03;;;;;;;0.73;0.73;;;;;;;7.22;54.33;99900.28;4305135;33;34474;-77
2022/11/30 07:29:50;;;;;;;0.62;0.62;;;;;;;7.18;54.94;99898.53;4304787;33;35417;-76
2022/11/30 07:32:18;;;;;;;0.60;0.60;;;;;;;7.36;53.58;99899.59;4304881;33;34595;-77
2022/11/30 07:34:46;;;;;;;1.10;1.10;;;;;;;7.43;54.30;99897.91;4304871;33;34438;-77
2022/11/30 07:37:15;;;;;;;0.65;0.65;;;;;;;7.25;54.71;99899.44;4304827;33;33897;-77
2022/11/30 07:39:43;;;;;;;2.47;2.35;;;;;;;7.39;54.95;99908.28;4291976;33;35047;-76
2022/11/30 07:42:11;;;;;;;0.40;0.40;;;;;;;7.67;52.44;99898.19;4319331;33;34595;-71
2022/11/30 07:44:40;;;;;;;0.80;0.80;;;;;;;6.97;54.32;99903.41;4319350;33;33693;-77
2022/11/30 07:47:08;;;;;;;0.47;0.47;;;;;;;7.12;56.22;99902.75;4306585;33;34004;-77
2022/11/30 07:49:37;;;;;;;3.00;2.72;;;;;;;7.09;54.93;99897.53;4319190;33;34926;-78
2022/11/30 07:52:05;;;;;;;0.98;0.98;;;;;;;7.51;55.31;99901.47;4317649;33;34655;-73
2022/11/30 07:54:34;;;;;;;1.65;1.27;;;;;;;7.38;53.75;99898.75;4291306;33;34367;-72
2022/11/30 07:57:02;;;;;;;0.60;0.60;;;;;;;7.45;55.26;99896.19;4304346;33;33876;-78
2022/11/30 07:59:30;;;;;;;2.00;1.85;;;;;;;7.11;54.32;99894.13;4304475;33;34932;-77
2022/11/30 08:01:59;;;;;;;3.12;2.65;;;;;;;6.81;56.65;99903.22;4291384;33;34610;-73
2022/11/30 08:04:28;;;;;;;1.92;0.73;;;;;;;7.45;53.70;99909.16;4305736;33;33537;-82
2022/11/30 08:06:56;;;;;;;4.37;2.78;;;;;;;7.35;53.71;99901.28;4304824;33;33928;-79
2022/11/30 08:09:23;;;;;;;1.33;1.23;;;;;;;7.55;52.80;99898.94;4302884;33;34316;-78
2022/11/30 08:11:52;;;;;;;0.88;0.88;;;;;;;7.33;52.88;99895.22;4304296;33;32882;-80
2022/11/30 08:14:20;;;;;;;0.80;0.80;;;;;;;7.02;54.09;99904.34;4318722;33;33654;-78
2022/11/30 08:16:48;;;;;;;1.05;1.05;;;;;;;7.45;54.89;99906.56;4319130;33;33532;-79
2022/11/30 08:19:16;;;;;;;2.12;1.92;;;;;;;7.48;53.14;99901.44;4305878;33;34686;-79
2022/11/30 08:21:44;;;;;;;0.60;0.60;;;;;;;7.52;53.06;99898.91;4318884;33;34301;-78
2022/11/30 08:24:12;;;;;;;1.75;1.50;;;;;;;7.91;51.07;99888.91;4318532;33;34326;-79
2022/11/30 08:26:42;;;;;;;0.90;0.90;;;;;;;8.12;51.61;99891.69;4305000;33;33966;-79
2022/11/30 08:29:10;;;;;;;2.15;1.95;;;;;;;7.89;53.05;99888.88;4305565;33;35155;-79
2022/11/30 08:31:38;;;;;;;0.73;0.73;;;;;;;7.77;52.98;99881.84;4318791;33;34712;-78
2022/11/30 08:34:09;;;;;;;0.57;0.57;;;;;;;7.82;52.73;99886.22;4318577;33;34445;-75
2022/11/30 08:36:38;;;;;;;5.85;2.70;;;;;;;7.84;50.79;99884.53;4318765;33;33876;-79
2022/11/30 08:39:08;;;;;;;3.00;2.72;;;;;;;8.07;51.42;99885.56;4317450;33;35249;-79
2022/11/30 08:41:37;;;;;;;17.58;10.35;;;;;;;7.49;56.07;99878.13;4305736;33;35211;-76
2022/11/30 08:44:06;;;;;;;2.78;2.58;;;;;;;7.54;53.70;99880.78;4318936;33;34676;-78
2022/11/30 08:46:34;;;;;;;0.50;0.50;;;;;;;7.75;51.01;99870.63;4305568;33;33902;-80
2022/11/30 08:49:20;;;;;;;0.60;0.60;;;;;;;7.65;52.65;99879.16;4307686;33;34974;-79
2022/11/30 08:51:52;;;;;;;0.60;0.60;;;;;;;7.65;52.89;99879.16;4305318;33;34230;-79
2022/11/30 08:54:45;;;;;;;0.85;0.82;;;;;;;7.96;50.33;99872.53;4317606;33;34532;-80
2022/11/30 08:57:20;;;;;;;0.85;0.85;;;;;;;7.86;49.67;99885.41;4317353;33;33889;-73
2022/11/30 08:59:48;;;;;;;1.00;0.73;;;;;;;7.94;48.85;99875.94;4305368;33;35055;-80
2022/11/30 09:02:17;;;;;;;0.73;0.73;;;;;;;8.16;48.94;99877.00;4318356;33;34773;-79
2022/11/30 09:04:47;;;;;;;0.95;0.88;;;;;;;7.84;50.76;99879.34;4305261;33;33647;-79
2022/11/30 09:07:16;;;;;;;0.62;0.62;;;;;;;8.42;48.46;99885.00;4305561;33;33221;-78
2022/11/30 09:09:45;;;;;;;0.40;0.40;;;;;;;8.12;48.79;99888.22;4317149;33;34226;-77
2022/11/30 09:12:13;;;;;;;0.73;0.73;;;;;;;7.96;49.47;99901.06;4317056;33;34516;-76
2022/11/30 09:14:41;;;;;;;0.82;0.77;;;;;;;8.06;48.70;99891.59;4317009;33;33635;-78
2022/11/30 09:17:09;;;;;;;0.40;0.40;;;;;;;8.26;48.38;99898.69;4317148;33;34048;-79
2022/11/30 09:19:38;;;;;;;0.93;0.93;;;;;;;8.12;49.35;99891.69;4304933;33;35084;-78
2022/11/30 09:22:07;;;;;;;0.80;0.80;;;;;;;8.02;48.85;99889.84;4305069;33;34523;-79
2022/11/30 09:24:36;;;;;;;0.70;0.70;;;;;;;8.21;50.40;99892.63;4317878;33;33557;-76
2022/11/30 09:27:04;;;;;;;1.10;1.10;;;;;;;8.18;48.60;99890.00;4317977;33;34116;-74
2022/11/30 09:29:33;;;;;;;2.47;2.30;;;;;;;8.20;49.22;99894.31;4318059;33;35145;-74
2022/11/30 09:32:01;;;;;;;0.45;0.45;;;;;;;8.30;48.43;99892.69;4316920;33;35259;-77
2022/11/30 09:34:29;;;;;;;1.05;1.00;;;;;;;8.04;49.34;99890.72;4318076;33;34455;-78
2022/11/30 09:36:57;;;;;;;0.40;0.40;;;;;;;7.96;50.37;99887.22;4318884;33;34865;-73
2022/11/30 09:39:25;;;;;;;0.50;0.50;;;;;;;8.13;49.52;99895.13;4313495;33;35055;-78
2022/11/30 09:42:18;;;;;;;1.40;1.30;;;;;;;8.30;49.95;99887.50;4317593;33;34678;-74
2022/11/30 09:45:01;;;;;;;0.88;0.88;;;;;;;8.52;47.73;99886.81;4318971;33;33747;-78
2022/11/30 09:48:05;;;;;;;0.40;0.40;;;;;;;8.47;48.05;99882.44;4301872;33;34662;-78
2022/11/30 09:50:40;;;;;;;0.73;0.73;;;;;;;8.42;48.77;99884.09;4304404;33;34941;-72
2022/11/30 09:53:19;;;;;;;0.60;0.60;;;;;;;8.52;48.56;99875.53;4305490;33;35115;-79
2022/11/30 09:55:58;;;;;;;0.50;0.50;;;;;;;8.67;48.26;99879.97;4292390;33;32452;-80
2022/11/30 09:58:44;;;;;;;1.17;1.15;;;;;;;8.16;49.05;99882.19;4307596;33;33172;-79
2022/11/30 10:01:17;;;;;;;0.40;0.40;;;;;;;8.56;48.87;99876.44;4307091;33;35912;-79
2022/11/30 10:03:46;;;;;;;0.85;0.85;;;;;;;8.20;49.69;99873.56;4306985;33;34388;-77
2022/11/30 10:06:33;;;;;;;0.60;0.60;;;;;;;8.59;48.73;99876.47;4319935;33;34356;-76
2022/11/30 10:09:38;;;;;;;0.60;0.60;;;;;;;8.33;49.69;99879.72;4319919;33;33833;-78
2022/11/30 10:12:13;;;;;;;0.52;0.52;;;;;;;8.43;49.10;99867.72;4306572;33;34275;-78
2022/11/30 10:14:58;;;;;;;1.87;0.93;;;;;;;8.54;49.80;99873.81;4319894;33;34691;-78
2022/11/30 10:18:05;;;;;;;0.55;0.55;;;;;;;8.57;48.90;99862.59;4319958;33;33615;-77
2022/11/30 10:20:46;;;;;;;0.50;0.50;;;;;;;8.59;49.72;99863.47;4270565;33;34526;-77
2022/11/30 10:23:32;;;;;;;0.70;0.70;;;;;;;8.10;49.81;99851.91;4314859;33;34829;-78
2022/11/30 10:26:11;;;;;;;1.60;1.40;;;;;;;8.31;49.67;99851.19;4320127;33;34601;-77
2022/11/30 10:28:51;;;;;;;0.68;0.68;;;;;;;8.54;48.52;99848.75;4306739;33;33629;-78
2022/11/30 10:31:34;;;;;;;1.65;1.15;;;;;;;8.81;50.23;99843.69;4306784;33;34865;-77
2022/11/30 10:34:21;;;;;;;1.00;1.00;;;;;;;8.87;48.31;99841.13;4305144;33;35794;-77
2022/11/30 10:37:14;;;;;;;0.85;0.85;;;;;;;8.68;48.25;99846.25;4305288;33;35409;-77
2022/11/30 10:40:01;;;;;;;0.73;0.55;;;;;;;8.44;48.36;99833.13;4306935;33;33396;-81
2022/11/30 10:42:46;;;;;;;0.88;0.88;;;;;;;8.18;49.79;99843.28;4301535;33;34888;-78
2022/11/30 10:45:22;;;;;;;0.73;0.73;;;;;;;8.51;49.14;99846.13;4314388;33;35111;-77
2022/11/30 10:48:05;;;;;;;0.43;0.43;;;;;;;8.70;48.10;99843.63;4309489;33;35281;-77
2022/11/30 10:50:33;;;;;;;0.60;0.60;;;;;;;8.54;48.43;99853.06;4318452;33;34448;-78
2022/11/30 10:53:02;;;;;;;1.15;1.15;;;;;;;8.44;50.80;99852.16;4318615;33;33873;-78
2022/11/30 10:55:34;;;;;;;0.93;0.93;;;;;;;8.63;48.68;99852.25;4318454;33;35950;-78
2022/11/30 10:58:20;;;;;;;0.95;0.95;;;;;;;8.65;48.96;99846.22;4306470;33;35377;-79
2022/11/30 11:01:23;;;;;;;2.70;2.50;;;;;;;8.70;48.98;99844.50;4302032;33;33783;-78
2022/11/30 11:04:11;;;;;;;0.62;0.62;;;;;;;8.38;52.04;99846.88;4319224;33;34663;-79
2022/11/30 11:06:45;;;;;;;1.12;1.10;;;;;;;8.53;49.73;99836.62;4319561;33;35147;-79
2022/11/30 11:09:26;;;;;;;1.27;1.17;;;;;;;9.07;48.07;99838.56;4313671;33;34628;-77
2022/11/30 11:11:56;;;;;;;1.80;1.35;;;;;;;8.96;47.92;99835.09;4305029;33;33698;-75
2022/11/30 11:14:27;;;;;;;0.70;0.70;;;;;;;8.89;49.14;99832.47;4304843;33;34776;-76
2022/11/30 11:17:25;;;;;;;0.40;0.40;;;;;;;8.92;47.93;99829.88;4304956;33;35015;-78
2022/11/30 11:19:53;;;;;;;0.50;0.50;;;;;;;8.73;48.46;99838.44;4310800;33;35030;-78
2022/11/30 11:22:24;;;;;;;0.88;0.88;;;;;;;8.59;48.77;99834.91;4319461;33;33816;-78
2022/11/30 11:25:09;;;;;;;1.08;0.80;;;;;;;8.62;49.66;99842.75;4303304;33;33097;-77
2022/11/30 11:27:37;;;;;;;11.98;1.42;;;;;;;8.51;49.86;99848.72;4298774;33;35120;-79
2022/11/30 11:30:17;;;;;;;0.60;0.60;;;;;;;8.40;51.06;99842.59;4318378;33;34701;-79
2022/11/30 11:33:14;;;;;;;1.50;1.30;;;;;;;8.88;49.15;99846.31;4319413;33;33706;-75
2022/11/30 11:35:51;;;;;;;0.80;0.80;;;;;;;9.10;48.62;99844.66;4306325;33;34722;-80
2022/11/30 11:38:52;;;;;;;0.57;0.45;;;;;;;9.11;49.19;99838.59;4317343;33;35134;-80
2022/11/30 11:41:32;;;;;;;0.50;0.50;;;;;;;8.48;50.67;99838.31;4304589;33;35300;-81
2022/11/30 11:44:03;;;;;;;1.12;1.08;;;;;;;8.66;51.05;99847.06;4302243;33;33579;-79
2022/11/30 11:46:51;;;;;;;0.60;0.60;;;;;;;8.97;49.46;99849.81;4308198;33;34770;-80
2022/11/30 11:49:27;;;;;;;1.48;1.37;;;;;;;8.98;49.06;99839.41;4314400;33;36060;-79
2022/11/30 11:52:05;;;;;;;1.12;1.02;;;;;;;8.92;51.03;99850.66;4312142;33;34449;-80
2022/11/30 11:54:55;;;;;;;0.62;0.62;;;;;;;9.10;48.85;99838.59;4303149;33;33595;-82
2022/11/30 11:57:53;;;;;;;0.80;0.80;;;;;;;9.10;49.22;99836.84;4309925;33;34686;-81
2022/11/30 12:00:24;;;;;;;0.50;0.50;;;;;;;9.08;48.81;99829.94;4302891;33;35641;-80
2022/11/30 12:03:13;;;;;;;1.37;0.93;;;;;;;8.82;49.79;99828.09;4313929;33;33674;-74
2022/11/30 12:06:02;;;;;;;5.10;1.77;;;;;;;8.64;50.73;99823.69;4307516;33;33589;-79
2022/11/30 12:08:34;;;;;;;0.65;0.65;;;;;;;9.01;49.07;99823.00;4317734;33;33914;-82
2022/11/30 12:11:16;;;;;;;0.60;0.60;;;;;;;9.03;49.12;99818.66;4316382;33;35012;-75